Map

Track Data

SID SEASON NUMBER BASIN SUBBASIN NAME ISO_TIME NATURE LAT LON WMO_WIND WMO_PRES WMO_AGENCY TRACK_TYPE DIST2LAND LANDFALL IFLAG USA_AGENCY USA_ATCF_ID USA_LAT USA_LON USA_RECORD USA_STATUS USA_WIND USA_PRES USA_SSHS USA_R34_NE USA_R34_SE USA_R34_SW USA_R34_NW USA_R50_NE USA_R50_SE USA_R50_SW USA_R50_NW USA_R64_NE USA_R64_SE USA_R64_SW USA_R64_NW USA_POCI USA_ROCI USA_RMW USA_EYE TOKYO_LAT TOKYO_LON TOKYO_GRADE TOKYO_WIND TOKYO_PRES TOKYO_R50_DIR TOKYO_R50_LONG TOKYO_R50_SHORT TOKYO_R30_DIR TOKYO_R30_LONG TOKYO_R30_SHORT TOKYO_LAND CMA_LAT CMA_LON CMA_CAT CMA_WIND CMA_PRES HKO_LAT HKO_LON HKO_CAT HKO_WIND HKO_PRES NEWDELHI_LAT NEWDELHI_LON NEWDELHI_GRADE NEWDELHI_WIND NEWDELHI_PRES NEWDELHI_CI NEWDELHI_DP NEWDELHI_POCI REUNION_LAT REUNION_LON REUNION_TYPE REUNION_WIND REUNION_PRES REUNION_TNUM REUNION_CI REUNION_RMW REUNION_R34_NE REUNION_R34_SE REUNION_R34_SW REUNION_R34_NW REUNION_R50_NE REUNION_R50_SE REUNION_R50_SW REUNION_R50_NW REUNION_R64_NE REUNION_R64_SE REUNION_R64_SW REUNION_R64_NW BOM_LAT BOM_LON BOM_TYPE BOM_WIND BOM_PRES BOM_TNUM BOM_CI BOM_RMW BOM_R34_NE BOM_R34_SE BOM_R34_SW BOM_R34_NW BOM_R50_NE BOM_R50_SE BOM_R50_SW BOM_R50_NW BOM_R64_NE BOM_R64_SE BOM_R64_SW BOM_R64_NW BOM_ROCI BOM_POCI BOM_EYE BOM_POS_METHOD BOM_PRES_METHOD NADI_LAT NADI_LON NADI_CAT NADI_WIND NADI_PRES WELLINGTON_LAT WELLINGTON_LON WELLINGTON_WIND WELLINGTON_PRES DS824_LAT DS824_LON DS824_STAGE DS824_WIND DS824_PRES TD9636_LAT TD9636_LON TD9636_STAGE TD9636_WIND TD9636_PRES TD9635_LAT TD9635_LON TD9635_WIND TD9635_PRES TD9635_ROCI NEUMANN_LAT NEUMANN_LON NEUMANN_CLASS NEUMANN_WIND NEUMANN_PRES MLC_LAT MLC_LON MLC_CLASS MLC_WIND MLC_PRES USA_GUST BOM_GUST BOM_GUST_PER REUNION_GUST REUNION_GUST_PER USA_SEAHGT USA_SEARAD_NE USA_SEARAD_SE USA_SEARAD_SW USA_SEARAD_NW STORM_SPEED STORM_DIR
1928252N18142 1928 53 WP MM NOT_NAMED 1928-09-08 10:00:00 NR 17.7000 142.400 main 1873 1827 __________O___ -1 17.7000 142.400 7 13 352
1928252N18142 1928 53 WP MM NOT_NAMED 1928-09-08 12:00:00 NR 18.1345 142.342 main 1827 1753 __________P___ -1 18.1345 142.342 7 13 353
1928252N18142 1928 53 WP MM NOT_NAMED 1928-09-08 15:00:00 NR 18.7858 142.258 main 1753 1687 __________P___ -1 18.7858 142.258 7 13 353
1928252N18142 1928 53 WP MM NOT_NAMED 1928-09-08 18:00:00 NR 19.4360 142.181 main 1687 1610 __________P___ -1 19.4360 142.181 7 13 354
1928252N18142 1928 53 WP MM NOT_NAMED 1928-09-08 21:00:00 NR 20.0844 142.117 main 1610 1589 __________P___ -1 20.0844 142.117 7 13 355
1928252N18142 1928 53 WP MM NOT_NAMED 1928-09-08 22:00:00 NR 20.3000 142.100 main 1589 1548 __________O___ -1 20.3000 142.100 7 13 357
1928252N18142 1928 53 WP MM NOT_NAMED 1928-09-09 00:00:00 NR 20.7302 142.071 main 1548 1472 __________P___ -1 20.7302 142.071 7 13 357
1928252N18142 1928 53 WP MM NOT_NAMED 1928-09-09 03:00:00 NR 21.3693 142.034 main 1472 1410 __________P___ -1 21.3693 142.034 7 13 357
1928252N18142 1928 53 WP MM NOT_NAMED 1928-09-09 06:00:00 NR 21.9956 141.992 main 1410 1345 __________P___ -1 21.9956 141.992 7 12 356
1928252N18142 1928 53 WP MM NOT_NAMED 1928-09-09 09:00:00 NR 22.6029 141.929 main 1345 1325 __________P___ -1 22.6029 141.929 7 12 354
1928252N18142 1928 53 WP MM NOT_NAMED 1928-09-09 10:00:00 NR 22.8000 141.900 main 1325 1280 __________O___ -1 22.8000 141.900 7 12 352
1928252N18142 1928 53 WP MM NOT_NAMED 1928-09-09 12:00:00 NR 23.2099 141.833 main 1280 1215 __________P___ -1 23.2099 141.833 7 12 350
1928252N18142 1928 53 WP MM NOT_NAMED 1928-09-09 15:00:00 NR 23.8065 141.709 main 1215 1151 __________P___ -1 23.8065 141.709 7 12 347
1928252N18142 1928 53 WP MM NOT_NAMED 1928-09-09 18:00:00 NR 24.3617 141.553 main 1151 1092 __________P___ -1 24.3617 141.553 7 11 344
1928252N18142 1928 53 WP MM NOT_NAMED 1928-09-09 21:00:00 NR 24.8538 141.368 main 1092 1078 __________P___ -1 24.8538 141.368 7 10 340
1928252N18142 1928 53 WP MM NOT_NAMED 1928-09-09 22:00:00 NR 25.0000 141.300 main 1078 1043 __________O___ -1 25.0000 141.300 3 9 335
1928252N18142 1928 53 WP MM NOT_NAMED 1928-09-10 00:00:00 NR 25.2649 141.161 main 1043 1000 __________P___ -1 25.2649 141.161 3 8 331
1928252N18142 1928 53 WP MM NOT_NAMED 1928-09-10 03:00:00 NR 25.5994 140.928 main 1000 961 __________P___ -1 25.5994 140.928 3 8 324
1928252N18142 1928 53 WP MM NOT_NAMED 1928-09-10 06:00:00 NR 25.8779 140.670 main 961 927 __________P___ -1 25.8779 140.670 3 7 317
1928252N18142 1928 53 WP MM NOT_NAMED 1928-09-10 09:00:00 NR 26.1223 140.395 main 927 912 __________P___ -1 26.1223 140.395 3 7 314
1928252N18142 1928 53 WP MM NOT_NAMED 1928-09-10 10:00:00 NR 26.2000 140.300 main 912 888 __________O___ -1 26.2000 140.300 4 7 320
1928252N18142 1928 53 WP MM NOT_NAMED 1928-09-10 12:00:00 NR 26.3767 140.153 main 888 854 __________P___ -1 26.3767 140.153 4 7 321
1928252N18142 1928 53 WP MM NOT_NAMED 1928-09-10 15:00:00 NR 26.6233 139.921 main 854 821 __________P___ -1 26.6233 139.921 4 7 316
1928252N18142 1928 53 WP MM NOT_NAMED 1928-09-10 18:00:00 NR 26.8456 139.636 main 821 789 __________P___ -1 26.8456 139.636 4 7 305
1928252N18142 1928 53 WP MM NOT_NAMED 1928-09-10 21:00:00 NR 27.0413 139.256 main 789 770 __________P___ -1 27.0413 139.256 4 8 298
1928252N18142 1928 53 WP MM NOT_NAMED 1928-09-10 22:00:00 NR 27.1000 139.100 main 770 745 __________O___ -1 27.1000 139.100 4 10 294
1928252N18142 1928 53 WP MM NOT_NAMED 1928-09-11 00:00:00 NR 27.2459 138.737 main 745 704 __________P___ -1 27.2459 138.737 4 12 291
1928252N18142 1928 53 WP MM NOT_NAMED 1928-09-11 03:00:00 NR 27.4399 138.091 main 704 665 __________P___ -1 27.4399 138.091 4 13 285
1928252N18142 1928 53 WP MM NOT_NAMED 1928-09-11 06:00:00 NR 27.5737 137.355 main 665 651 __________P___ -1 27.5737 137.355 4 14 277
1928252N18142 1928 53 WP MM NOT_NAMED 1928-09-11 09:00:00 NR 27.6134 136.568 main 651 635 __________P___ -1 27.6134 136.568 4 14 272
1928252N18142 1928 53 WP MM NOT_NAMED 1928-09-11 10:00:00 NR 27.6000 136.300 main 635 607 __________O___ -1 27.6000 136.300 4 14 262
1928252N18142 1928 53 WP MM NOT_NAMED 1928-09-11 12:00:00 NR 27.5170 135.758 main 608 569 __________P___ -1 27.5170 135.758 4 15 256
1928252N18142 1928 53 WP MM NOT_NAMED 1928-09-11 15:00:00 NR 27.2977 134.921 main 569 551 __________P___ -1 27.2977 134.921 4 16 251
1928252N18142 1928 53 WP MM NOT_NAMED 1928-09-11 18:00:00 NR 27.0083 134.098 main 555 542 __________P___ -1 27.0083 134.098 4 15 247
1928252N18142 1928 53 WP MM NOT_NAMED 1928-09-11 21:00:00 NR 26.6988 133.334 main 542 542 __________P___ -1 26.6988 133.334 4 15 245
1928252N18142 1928 53 WP MM NOT_NAMED 1928-09-11 22:00:00 NR 26.6000 133.100 main 543 539 __________O___ -1 26.6000 133.100 4 13 244
1928252N18142 1928 53 WP MM NOT_NAMED 1928-09-12 00:00:00 NR 26.4190 132.688 main 549 545 __________P___ -1 26.4190 132.688 4 12 243
1928252N18142 1928 53 WP MM NOT_NAMED 1928-09-12 03:00:00 NR 26.1547 132.138 main 552 559 __________P___ -1 26.1547 132.138 4 11 242
1928252N18142 1928 53 WP MM NOT_NAMED 1928-09-12 06:00:00 NR 25.9212 131.641 main 576 574 __________P___ -1 25.9212 131.641 4 10 245
1928252N18142 1928 53 WP MM NOT_NAMED 1928-09-12 09:00:00 NR 25.7430 131.161 main 593 592 __________P___ -1 25.7430 131.161 4 9 249
1928252N18142 1928 53 WP MM NOT_NAMED 1928-09-12 10:00:00 NR 25.7000 131.000 main 592 591 __________O___ -1 25.7000 131.000 4 10 257
1928252N18142 1928 53 WP MM NOT_NAMED 1928-09-12 12:00:00 NR 25.6278 130.627 main 602 602 __________P___ -1 25.6278 130.627 4 10 262
1928252N18142 1928 53 WP MM NOT_NAMED 1928-09-12 15:00:00 NR 25.5758 130.066 main 605 606 __________P___ -1 25.5758 130.066 4 10 268
1928252N18142 1928 53 WP MM NOT_NAMED 1928-09-12 18:00:00 NR 25.5884 129.529 main 614 612 __________P___ -1 25.5884 129.529 4 9 275
1928252N18142 1928 53 WP MM NOT_NAMED 1928-09-12 21:00:00 NR 25.6623 129.045 main 614 614 __________P___ -1 25.6623 129.045 4 9 281
1928252N18142 1928 53 WP MM NOT_NAMED 1928-09-12 22:00:00 NR 25.7000 128.900 main 617 612 __________O___ -1 25.7000 128.900 4 8 289
1928252N18142 1928 53 WP MM NOT_NAMED 1928-09-13 00:00:00 NR 25.7843 128.646 main 615 605 __________P___ -1 25.7843 128.646 4 7 297
1928252N18142 1928 53 WP MM NOT_NAMED 1928-09-13 03:00:00 NR 25.9618 128.322 main 605 592 __________P___ -1 25.9618 128.322 4 7 306
1928252N18142 1928 53 WP MM NOT_NAMED 1928-09-13 06:00:00 NR 26.1810 128.043 main 596 580 __________P___ -1 26.1810 128.043 4 7 314
1928252N18142 1928 53 WP MM NOT_NAMED 1928-09-13 09:00:00 NR 26.4199 127.786 main 584 578 __________P___ -1 26.4199 127.786 4 7 316
1928252N18142 1928 53 WP MM NOT_NAMED 1928-09-13 10:00:00 NR 26.5000 127.700 main 578 572 __________O___ -1 26.5000 127.700 4 7 312
1928252N18142 1928 53 WP MM NOT_NAMED 1928-09-13 12:00:00 NR 26.6415 127.511 main 576 557 __________P___ -1 26.6415 127.511 4 7 311
1928252N18142 1928 53 WP MM NOT_NAMED 1928-09-13 15:00:00 NR 26.8601 127.233 main 561 542 __________P___ -1 26.8601 127.233 4 7 312
1928252N18142 1928 53 WP MM NOT_NAMED 1928-09-13 18:00:00 NR 27.0864 126.961 main 542 506 __________P___ -1 27.0864 126.961 4 7 314
1928252N18142 1928 53 WP MM NOT_NAMED 1928-09-13 21:00:00 NR 27.3203 126.690 main 506 492 __________P___ -1 27.3203 126.690 4 7 314
1928252N18142 1928 53 WP MM NOT_NAMED 1928-09-13 22:00:00 NR 27.4000 126.600 main 492 465 __________O___ -1 27.4000 126.600 4 7 317
1928252N18142 1928 53 WP MM NOT_NAMED 1928-09-14 00:00:00 NR 27.5765 126.422 main 465 438 __________P___ -1 27.5765 126.422 4 7 319
1928252N18142 1928 53 WP MM NOT_NAMED 1928-09-14 03:00:00 NR 27.8480 126.155 main 438 399 __________P___ -1 27.8480 126.155 4 7 318
1928252N18142 1928 53 WP MM NOT_NAMED 1928-09-14 06:00:00 NR 28.1083 125.883 main 399 364 __________P___ -1 28.1083 125.883 4 7 315
1928252N18142 1928 53 WP MM NOT_NAMED 1928-09-14 09:00:00 NR 28.3354 125.598 main 364 352 __________P___ -1 28.3354 125.598 4 7 311
1928252N18142 1928 53 WP MM NOT_NAMED 1928-09-14 10:00:00 NR 28.4000 125.500 main 352 330 __________O___ -1 28.4000 125.500 4 6 303
1928252N18142 1928 53 WP MM NOT_NAMED 1928-09-14 12:00:00 NR 28.5094 125.297 main 330 299 __________P___ -1 28.5094 125.297 4 6 297
1928252N18142 1928 53 WP MM NOT_NAMED 1928-09-14 15:00:00 NR 28.6315 124.979 main 299 258 __________P___ -1 28.6315 124.979 4 6 290
1928252N18142 1928 53 WP MM NOT_NAMED 1928-09-14 18:00:00 NR 28.7169 124.649 main 258 227 __________P___ -1 28.7169 124.649 4 6 284
1928252N18142 1928 53 WP MM NOT_NAMED 1928-09-14 21:00:00 NR 28.7808 124.313 main 227 218 __________P___ -1 28.7808 124.313 4 6 282
1928252N18142 1928 53 WP MM NOT_NAMED 1928-09-14 22:00:00 NR 28.8000 124.200 main 218 __________O___ -1 28.8000 124.200 4 6 281

Digital Typhoon Data and Search

About IBTrACS Database

This database is a web-friendly format of International Best Track Archive for Climate Stewardship (IBTrACS), a global best track data archive curated by NOAA dating back to 1842.

Updated: 2021-12-03